• Join FlightAware (Why Join?)
  • Login
  • US Flag 
Gobble Gobble! 
06:21PM EST


 

Airport Tracker/Info


-or-


 

Live Flight TrackerFlight Track Log ✈ LXJ549 ✈ 09-Jul-2013 ✈ KOAK - KASE

Flight Track Log - Related Links

Times and Time Zones

All times are in EDT time to prevent confusion due to time zone crossing. See the LXJ549 flight status page for this flight to view local times or setup timezone preferences in your user account.

Time Position Orientation Groundspeed Altitude Reporting Facility
EDT Latitude Longitude Course Direction KTS MPH feet Rate Location/Type
01:25PM 37.7333 -122.2667 332° Northwest 190 219 1,100  Level Northern Cal TRACON
01:26PM 37.7833 -122.3000 332° Northwest 221 254 3,300 2,040 Climbing Northern Cal TRACON
01:27PM 37.8333 -122.3000 360° North 257 296 5,200 2,220 Climbing Northern Cal TRACON
01:30PM 37.8822 -122.0631 75° East 304 350 11,200 2,460 Climbing Oakland Center
01:31PM 37.9089 -121.9164 77° East 347 399 14,000 2,520 Climbing Oakland Center
01:32PM 37.9336 -121.7869 76° East 370 426 16,400 1,980 Climbing Oakland Center
01:33PM 37.9586 -121.6519 77° East 388 447 18,100 1,920 Climbing Oakland Center
01:34PM 37.9853 -121.5075 77° East 411 473 20,400 2,220 Climbing Oakland Center
01:35PM 38.0108 -121.3661 77° East 418 481 22,700 1,800 Climbing Oakland Center
01:36PM 38.0364 -121.2172 78° East 430 495 24,200 1,500 Climbing Oakland Center
01:37PM 38.0642 -121.0608 77° East 450 518 25,800 1,980 Climbing Oakland Center
01:38PM 38.0953 -120.8719 78° East 457 526 28,300 1,860 Climbing Oakland Center
01:39PM 38.1211 -120.7131 78° East 461 531 29,700 1,380 Climbing Oakland Center
01:40PM 38.1461 -120.5486 79° East 473 544 31,200 1,500 Climbing Oakland Center
01:41PM 38.1725 -120.3822 79° East 481 554 32,800 1,440 Climbing Oakland Center
01:42PM 38.1975 -120.2133 79° East 485 558 34,200 1,260 Climbing Oakland Center
01:43PM 38.2233 -120.0444 79° East 488 562 35,400 1,020 Climbing Oakland Center
01:44PM 38.2503 -119.8719 79° East 496 571 36,400 960 Climbing Oakland Center
01:45PM 38.2756 -119.6986 79° East 499 574 37,400 1,020 Climbing Oakland Center
01:46PM 38.3056 -119.4897 80° East 500 575 38,600 1,020 Climbing Oakland Center
01:47PM 38.3294 -119.3286 79° East 497 572 39,500 780 Climbing Oakland Center
01:48PM 38.3536 -119.1572 80° East 496 571 40,200 600 Climbing Oakland Center
01:49PM 38.3778 -118.9814 80° East 502 578 40,800 360 Climbing Oakland Center
01:50PM 38.4081 -118.7747 79° East 499 574 41,000 60 Climbing Oakland Center
01:51PM 38.4306 -118.6078 80° East 486 559 41,000  Level Oakland Center
01:52PM 38.4542 -118.4383 80° East 488 562 41,000  Level Oakland Center
01:53PM 38.4775 -118.2656 80° East 496 571 41,000  Level Oakland Center
01:54PM 38.5022 -118.0886 80° East 494 568 41,000  Level Oakland Center
01:55PM 38.5250 -117.9175 80° East 488 562 41,000  Level Oakland Center
01:56PM 38.5472 -117.7489 80° East 483 556 41,000  Level Oakland Center
01:57PM 38.5686 -117.5794 81° East 481 554 41,000  Level Oakland Center
01:58PM 38.5908 -117.4081 81° East 484 557 41,000  Level Oakland Center
01:59PM 38.6031 -117.3053 81° East 485 558 41,000  Level Salt Lake Center
02:00PM 38.6247 -117.1314 81° East 490 564 41,000  Level Salt Lake Center
02:01PM 38.6458 -116.9575 81° East 491 565 41,000  Level Salt Lake Center
02:02PM 38.6667 -116.7822 81° East 495 570 41,000  Level Salt Lake Center
02:03PM 38.6883 -116.6078 81° East 495 570 41,000 480 Level Salt Lake Center
02:04PM 38.7128 -116.4000 81° East 491 565 42,100 840 Climbing Salt Lake Center
02:05PM 38.7325 -116.2294 82° East 486 559 42,800 420 Climbing Salt Lake Center
02:06PM 38.7533 -116.0592 81° East 484 557 43,000 60 Climbing Salt Lake Center
02:07PM 38.7725 -115.8853 82° East 492 566 43,000  Level Salt Lake Center
02:08PM 38.7911 -115.7131 82° East 490 564 43,000  Level Salt Lake Center
02:09PM 38.8111 -115.5400 82° East 490 564 43,000  Level Salt Lake Center
02:10PM 38.8306 -115.3639 82° East 490 564 43,000  Level Salt Lake Center
02:11PM 38.8533 -115.1550 82° East 493 567 43,000  Level Salt Lake Center
02:12PM 38.8731 -114.9792 82° East 497 572 43,000  Level Salt Lake Center
02:13PM 38.8917 -114.8050 82° East 493 567 43,000  Level Salt Lake Center
02:14PM 38.9086 -114.6308 83° East 492 566 43,000  Level Salt Lake Center
02:15PM 38.9269 -114.4583 82° East 490 564 43,000  Level Salt Lake Center
02:16PM 38.9439 -114.2819 83° East 494 568 43,000  Level Salt Lake Center
02:18PM 38.9619 -114.1089 82° East 492 566 43,000  Level Salt Lake Center
02:19PM 38.9825 -113.8986 83° East 493 567 43,000  Level Salt Lake Center
02:20PM 38.9983 -113.7239 83° East 492 566 43,000  Level Salt Lake Center
02:21PM 39.0153 -113.5486 83° East 493 567 43,000  Level Salt Lake Center
02:22PM 39.0303 -113.3744 84° East 491 565 43,000  Level Salt Lake Center
02:23PM 39.0475 -113.1994 83° East 492 566 43,000  Level Salt Lake Center
02:24PM 39.0619 -113.0233 84° East 493 567 43,000  Level Salt Lake Center
02:25PM 39.0811 -112.8139 83° East 492 566 43,000  Level Salt Lake Center
02:26PM 39.0961 -112.6372 84° East 495 570 43,000  Level Salt Lake Center
02:27PM 39.1103 -112.4617 84° East 494 568 43,000  Level Salt Lake Center
02:28PM 39.1247 -112.2875 84° East 491 565 43,000  Level Salt Lake Center
02:29PM 39.1389 -112.1119 84° East 491 565 43,000  Level Salt Lake Center
02:30PM 39.1528 -111.9364 84° East 492 566 43,000  Level Salt Lake Center
02:31PM 39.1675 -111.7608 84° East 493 567 43,000  Level Salt Lake Center
02:32PM 39.1831 -111.5525 84° East 489 563 43,000  Level Salt Lake Center
02:33PM 39.1961 -111.3792 84° East 486 559 43,000  Level Salt Lake Center
02:34PM 39.2081 -111.1950 85° East 488 562 43,000  Level Salt Lake Center
02:35PM 39.2200 -111.0281 85° East 488 562 43,000  Level Salt Lake Center
02:36PM 39.2342 -110.8333 85° East 489 563 43,000  Level Salt Lake Center
02:37PM 39.2458 -110.6667 85° East 489 563 43,000  Level Salt Lake Center
02:38PM 39.2586 -110.4736 85° East 485 558 43,000  Level Salt Lake Center
02:39PM 39.2692 -110.3067 85° East 488 562 43,000  Level Salt Lake Center
02:40PM 39.2822 -110.1119 85° East 489 563 43,000  Level Salt Lake Center
02:41PM 39.2931 -109.9444 85° East 491 565 43,000 -420 Level Salt Lake Center
02:42PM 39.3111 -109.7781 82° East 489 563 42,200 -1,260 Descending Salt Lake Center
02:43PM 39.3436 -109.5811 78° East 501 577 40,500 -1,680 Descending Salt Lake Center
02:44PM 39.3703 -109.4133 78° East 501 577 38,800 -2,040 Descending Salt Lake Center
02:45PM 39.3961 -109.2411 79° East 504 580 36,600 -2,280 Descending Denver Center
02:46PM 39.4228 -109.0697 79° East 509 586 34,500 -2,340 Descending Denver Center
02:47PM 39.4536 -108.8689 79° East 514 592 31,800 -2,820 Descending Denver Center
02:48PM 39.4797 -108.6961 79° East 519 597 28,700 -2,520 Descending Denver Center
02:49PM 39.4917 -108.5047 85° East 483 556 26,600 -1,320 Descending Denver Center
02:50PM 39.5019 -108.3378 85° East 489 563 26,000 -1,080 Descending Denver Center
02:51PM 39.4983 -108.1531 91° East 455 524 24,500 -1,140 Descending Denver Center
02:53PM 39.4917 -108.0119 93° East 412 474 23,700 -1,260 Descending Denver Center
02:54PM 39.4844 -107.8592 93° East 382 440 22,000 -1,560 Descending Denver Center
02:55PM 39.4786 -107.7353 93° East 367 422 20,500 -1,920 Descending Denver Center
02:56PM 39.4714 -107.5933 94° East 356 410 18,100 -1,800 Descending Denver Center
02:57PM 39.4672 -107.4697 92° East 359 413 16,800 -660 Descending Denver Center
02:58PM 39.4611 -107.3364 93° East 335 386 16,800 -240 Level Denver Center
02:59PM 39.4558 -107.2389 94° East 291 335 16,400 -480 Descending Denver Center
03:00PM 39.5244 -107.1703 38° Northeast 281 323 15,900 -300 Descending Denver Center
03:01PM 39.5700 -107.0967 51° Northeast 288 331 15,900 -60 Level Denver Center
03:02PM 39.5344 -107.0103 118° Southeast 287 330 15,800 -120 Descending Denver Center
03:03PM 39.4719 -106.9753 157° South 259 298 15,700 -1,440 Descending Denver Center
03:04PM 39.4000 -106.9686 176° South 251 289 12,900 -2,700 Descending Denver Center
03:05PM 39.3369 -106.9808 189° South 234 269 10,200 -1,980 Descending Denver Center
03:06PM 39.2972 -106.9539 152° Southeast 215 247 8,900 -960 Descending Denver Center
03:07PM 39.2822 -106.8858 106° East 195 224 8,300 -600 Descending Denver Center
03:09PM 39.2167 -106.8667 176° South  Level FlightAware Approximate